Time;durP1;ratioP1;P1;durP2;ratioP2;P2;SDS_P1;SDS_P2;PMS_P1;PMS_P2;Temp;Humidity;BMP_temperature;BMP_pressure;BME280_temperature;BME280_humidity;BME280_pressure;Samples;Min_cycle;Max_cycle;Signal;HPM_P1;HPM_P2
2021/12/16 00:10:04;;;;;;;57.83;38.47;;;;;;;7.75;90.88;103350.22;4996595;28;20080;-88
2021/12/16 00:36:17;;;;;;;61.03;39.40;;;;;;;7.64;91.50;103352.38;5038453;28;20079;-88
2021/12/16 00:42:14;;;;;;;63.50;39.47;;;;;;;7.63;91.38;103350.63;5036328;28;20133;-89
2021/12/16 00:57:16;;;;;;;55.35;37.28;;;;;;;7.58;91.37;103342.59;5075517;28;20531;-88
2021/12/16 01:55:36;;;;;;;58.72;39.38;;;;;;;7.59;92.41;103388.75;5048887;28;20086;-87
2021/12/16 01:58:12;;;;;;;62.80;37.90;;;;;;;7.60;92.61;103395.75;5037613;28;20013;-85
2021/12/16 02:00:57;;;;;;;59.08;36.70;;;;;;;7.63;92.53;103395.00;5021512;28;20056;-92
2021/12/16 02:03:37;;;;;;;53.40;36.03;;;;;;;7.60;91.83;103392.22;5055776;28;20092;-92
2021/12/16 02:06:22;;;;;;;57.28;37.65;;;;;;;7.61;92.15;103400.16;5055768;28;20119;-88
2021/12/16 02:08:55;;;;;;;53.75;37.05;;;;;;;7.62;92.16;103396.69;4993681;28;20045;-90
2021/12/16 02:35:33;;;;;;;54.35;36.25;;;;;;;7.60;91.84;103407.88;4996802;28;20143;-88
2021/12/16 02:38:03;;;;;;;55.45;36.50;;;;;;;7.57;92.16;103413.88;4996965;28;20049;-88
2021/12/16 02:40:29;;;;;;;55.08;37.17;;;;;;;7.57;92.39;103416.50;5018701;28;20043;-89
2021/12/16 02:56:56;;;;;;;49.50;33.55;;;;;;;7.57;92.37;103419.09;5054977;28;20098;-88
2021/12/16 02:59:59;;;;;;;50.13;35.40;;;;;;;7.56;91.77;103417.31;5038681;28;20481;-89
2021/12/16 03:02:27;;;;;;;50.83;35.00;;;;;;;7.55;92.07;103415.53;5019694;28;20033;-88
2021/12/16 03:04:54;;;;;;;55.28;37.63;;;;;;;7.54;92.01;103410.25;5021984;28;20499;-90
2021/12/16 03:07:21;;;;;;;56.05;36.88;;;;;;;7.52;92.23;103409.31;5036364;28;20021;-88
2021/12/16 03:10:17;;;;;;;52.95;35.90;;;;;;;7.51;92.41;103411.00;5039508;28;20040;-90
2021/12/16 03:19:18;;;;;;;46.22;34.15;;;;;;;7.53;91.78;103408.44;5053192;28;20412;-90
2021/12/16 03:28:17;;;;;;;53.70;36.65;;;;;;;7.52;92.04;103409.31;4996891;28;20026;-87
2021/12/16 03:33:44;;;;;;;55.92;36.63;;;;;;;7.48;92.14;103413.47;4988054;28;20029;-91
2021/12/16 03:36:28;;;;;;;53.05;35.67;;;;;;;7.48;92.20;103410.88;4972437;28;20084;-90
2021/12/16 03:39:32;;;;;;;57.97;36.97;;;;;;;7.48;92.16;103417.81;4983510;28;20395;-88
2021/12/16 03:41:59;;;;;;;53.70;33.03;;;;;;;7.43;92.06;103409.81;4993938;28;20038;-89
2021/12/16 03:44:37;;;;;;;50.47;34.42;;;;;;;7.42;91.67;103415.84;4956285;28;20039;-85
2021/12/16 03:47:25;;;;;;;53.45;35.88;;;;;;;7.43;91.72;103425.47;4967756;28;20081;-88
2021/12/16 03:49:54;;;;;;;49.42;35.10;;;;;;;7.40;92.32;103422.72;5000984;28;20088;-87
2021/12/16 03:52:20;;;;;;;53.67;34.47;;;;;;;7.41;92.35;103428.00;4992731;28;20025;-86
2021/12/16 03:54:52;;;;;;;52.75;36.25;;;;;;;7.39;92.03;103437.47;5036524;28;20037;-90
2021/12/16 03:57:21;;;;;;;48.38;33.88;;;;;;;7.38;92.20;103434.78;5046888;28;20021;-88
2021/12/16 04:00:10;;;;;;;53.42;33.78;;;;;;;7.39;92.68;103439.19;5038944;28;20056;-90
2021/12/16 04:02:37;;;;;;;53.38;32.75;;;;;;;7.35;92.18;103432.06;5046421;28;20045;-89
2021/12/16 04:05:06;;;;;;;45.45;34.03;;;;;;;7.33;92.58;103436.34;5019837;28;20021;-86
2021/12/16 04:07:34;;;;;;;48.28;34.63;;;;;;;7.30;92.37;103434.47;5049885;28;20044;-83
2021/12/16 04:10:22;;;;;;;52.47;35.28;;;;;;;7.31;92.32;103441.44;5035387;28;20024;-86
2021/12/16 04:12:49;;;;;;;51.35;33.28;;;;;;;7.26;92.33;103436.03;5036229;28;20477;-89
2021/12/16 04:15:54;;;;;;;49.05;33.17;;;;;;;7.27;92.38;103435.22;5038265;28;20029;-88
2021/12/16 04:18:20;;;;;;;49.75;32.83;;;;;;;7.23;92.59;103443.75;5029485;28;20116;-88
2021/12/16 04:20:47;;;;;;;48.85;34.38;;;;;;;7.23;92.52;103446.34;5050123;28;20059;-87
2021/12/16 04:23:13;;;;;;;53.38;35.95;;;;;;;7.21;92.61;103440.19;5006658;28;20482;-89
2021/12/16 04:25:42;;;;;;;52.35;34.83;;;;;;;7.18;92.36;103432.19;5053035;28;20029;-90
2021/12/16 04:28:14;;;;;;;50.78;34.30;;;;;;;7.14;92.13;103432.91;5039597;28;20035;-89
2021/12/16 04:30:40;;;;;;;44.80;31.77;;;;;;;7.11;92.46;103428.44;5036729;28;20500;-88
2021/12/16 04:33:06;;;;;;;47.58;34.53;;;;;;;7.06;91.75;103429.94;5022505;28;20049;-88
2021/12/16 04:35:33;;;;;;;49.40;32.50;;;;;;;6.99;91.66;103427.91;5021070;28;20040;-89
2021/12/16 04:37:59;;;;;;;45.30;32.17;;;;;;;6.89;92.10;103426.59;5023927;28;20033;-88
2021/12/16 04:40:27;;;;;;;43.97;31.92;;;;;;;6.82;92.16;103427.13;5025398;28;20029;-88
2021/12/16 04:42:59;;;;;;;46.85;31.48;;;;;;;6.75;91.62;103430.28;5015675;28;20120;-88
2021/12/16 04:52:33;;;;;;;43.85;31.40;;;;;;;6.54;91.73;103422.38;5073787;28;20039;-86
2021/12/16 04:54:59;;;;;;;45.47;30.83;;;;;;;6.42;91.89;103430.50;5048655;28;20485;-86
2021/12/16 04:57:25;;;;;;;43.53;30.73;;;;;;;6.36;91.72;103423.28;5020844;28;20021;-89
2021/12/16 05:03:12;;;;;;;44.47;30.70;;;;;;;6.21;91.71;103433.00;5055082;28;20232;-86
2021/12/16 05:08:59;;;;;;;48.40;29.65;;;;;;;6.07;92.14;103430.59;5056132;28;20079;-88
2021/12/16 05:11:26;;;;;;;50.53;28.63;;;;;;;6.02;91.96;103431.19;5020372;28;20033;-87
2021/12/16 05:13:52;;;;;;;42.90;29.90;;;;;;;5.99;92.32;103431.97;5020834;28;20123;-89
2021/12/16 05:19:48;;;;;;;38.25;25.52;;;;;;;5.80;91.93;103439.63;5055017;28;20047;-90
2021/12/16 05:24:57;;;;;;;42.63;27.30;;;;;;;5.72;92.48;103429.75;5026749;28;20047;-90
2021/12/16 05:27:23;;;;;;;40.00;26.40;;;;;;;5.66;92.33;103437.25;5020057;28;20020;-89
2021/12/16 05:29:49;;;;;;;466.90;60.60;;;;;;;5.58;92.95;103453.28;5019774;28;20029;-89
2021/12/16 05:39:18;;;;;;;93.57;25.25;;;;;;;5.33;92.39;103462.41;5054750;28;20389;-89
2021/12/16 05:41:45;;;;;;;315.42;38.30;;;;;;;5.25;92.16;103466.34;5041581;28;20024;-88
2021/12/16 05:44:11;;;;;;;457.83;48.50;;;;;;;5.20;92.24;103466.06;5038863;28;20032;-88
2021/12/16 05:47:15;;;;;;;450.40;47.22;;;;;;;5.18;92.98;103465.09;5036166;28;20029;-89
2021/12/16 05:49:41;;;;;;;131.23;33.10;;;;;;;5.18;92.69;103465.09;5037881;28;20484;-87
2021/12/16 05:52:07;;;;;;;55.83;26.20;;;;;;;5.10;93.24;103463.81;5018078;28;20120;-88
2021/12/16 05:54:32;;;;;;;570.33;60.05;;;;;;;5.11;93.24;103479.47;5046918;28;20111;-88
2021/12/16 05:56:58;;;;;;;372.08;44.80;;;;;;;5.09;93.88;103478.50;5033258;28;20439;-88
2021/12/16 05:59:23;;;;;;;441.45;36.00;;;;;;;5.01;93.45;103479.81;5035440;28;20450;-89
2021/12/16 06:02:28;;;;;;;384.98;35.03;;;;;;;4.97;93.66;103493.44;5046441;28;20079;-87
2021/12/16 06:04:54;;;;;;;296.08;27.00;;;;;;;4.91;93.83;103487.91;5038524;28;20114;-85
2021/12/16 06:07:20;;;;;;;256.25;25.35;;;;;;;4.89;93.51;103494.75;5025106;28;20066;-87
2021/12/16 06:09:47;;;;;;;256.35;27.77;;;;;;;4.81;93.98;103490.03;5026426;28;20037;-88
2021/12/16 06:12:14;;;;;;;351.50;38.42;;;;;;;4.84;93.76;103492.78;5022682;28;20025;-85
2021/12/16 06:14:53;;;;;;;388.33;36.42;;;;;;;4.85;94.15;103493.69;5053846;28;20025;-84
2021/12/16 06:28:07;;;;;;;360.17;30.95;;;;;;;4.61;94.22;103501.00;5033470;28;20036;-86
2021/12/16 06:30:36;;;;;;;270.73;27.02;;;;;;;4.51;94.21;103503.09;5030546;28;20044;-85
2021/12/16 06:33:05;;;;;;;379.60;34.03;;;;;;;4.48;94.33;103504.63;5035115;28;20504;-88
2021/12/16 06:35:31;;;;;;;231.80;23.70;;;;;;;4.37;94.05;103509.22;5041123;28;20056;-88
2021/12/16 06:38:35;;;;;;;238.10;22.75;;;;;;;4.27;93.18;103518.19;5012056;28;20056;-86
2021/12/16 06:41:01;;;;;;;140.20;19.80;;;;;;;4.16;92.67;103516.66;5052680;28;20482;-86
2021/12/16 06:43:31;;;;;;;220.40;20.75;;;;;;;4.06;92.31;103522.13;5051303;28;20059;-88
2021/12/16 06:45:58;;;;;;;106.90;15.60;;;;;;;4.02;92.76;103521.03;5038256;28;20033;-88
2021/12/16 06:48:56;;;;;;;169.35;17.85;;;;;;;4.01;92.75;103513.19;5048420;28;20060;-89
2021/12/16 06:51:34;;;;;;;150.02;17.55;;;;;;;3.91;92.51;103511.78;4999165;28;20048;-87
2021/12/16 06:54:06;;;;;;;64.40;15.05;;;;;;;3.87;92.38;103521.06;5008572;28;20026;-88
2021/12/16 06:56:49;;;;;;;215.38;21.08;;;;;;;3.80;92.94;103511.13;5031114;28;20021;-88
2021/12/16 07:02:39;;;;;;;134.15;18.73;;;;;;;3.70;92.72;103520.06;5023331;28;20028;-86
2021/12/16 07:05:01;;;;;;;129.52;19.52;;;;;;;3.64;92.64;103517.09;5012981;28;20064;-86
2021/12/16 07:07:26;;;;;;;190.88;20.30;;;;;;;3.59;92.25;103523.69;5029660;28;20034;-86
2021/12/16 07:09:54;;;;;;;97.63;13.95;;;;;;;3.59;92.58;103523.69;5018165;28;20499;-87
2021/12/16 07:12:25;;;;;;;157.93;19.00;;;;;;;3.52;92.18;103535.41;4980310;28;20175;-77
2021/12/16 07:14:51;;;;;;;143.55;14.75;;;;;;;3.39;92.30;103536.38;5018670;28;20017;-87
2021/12/16 07:17:17;;;;;;;120.57;16.60;;;;;;;3.38;91.82;103539.75;5004857;28;20037;-76
2021/12/16 07:19:45;;;;;;;63.78;17.50;;;;;;;3.42;92.96;103541.72;5003360;28;20029;-75
2021/12/16 07:22:13;;;;;;;108.50;17.13;;;;;;;3.44;92.66;103550.47;5026588;28;20399;-76
2021/12/16 07:24:39;;;;;;;109.00;17.23;;;;;;;3.42;93.39;103557.28;5012237;28;20497;-86
2021/12/16 07:27:06;;;;;;;133.98;15.70;;;;;;;3.39;93.48;103562.28;5029778;28;20033;-86
2021/12/16 07:33:12;;;;;;;93.88;16.90;;;;;;;3.45;93.86;103573.03;5030846;28;20432;-88
2021/12/16 07:35:39;;;;;;;101.40;16.20;;;;;;;3.41;93.94;103575.34;5029386;28;20066;-85
2021/12/16 07:38:09;;;;;;;132.18;17.42;;;;;;;3.39;94.07;103577.84;5030314;28;20017;-85
2021/12/16 07:40:35;;;;;;;66.63;15.45;;;;;;;3.39;94.06;103582.09;5017277;28;20478;-85
2021/12/16 07:45:51;;;;;;;89.75;14.38;;;;;;;3.35;93.39;103594.00;5044972;28;20515;-86
2021/12/16 07:48:18;;;;;;;48.30;12.98;;;;;;;3.31;93.96;103602.38;5020246;28;20421;-84
2021/12/16 07:50:50;;;;;;;72.63;13.93;;;;;;;3.31;93.88;103610.16;5034661;28;20049;-86
2021/12/16 07:53:15;;;;;;;66.22;14.88;;;;;;;3.33;93.99;103611.13;5039008;28;20025;-85
2021/12/16 07:55:42;;;;;;;83.88;16.52;;;;;;;3.36;93.75;103615.63;5036942;28;20032;-85
2021/12/16 07:58:09;;;;;;;80.63;13.98;;;;;;;3.36;93.68;103624.31;5047792;28;20040;-86
2021/12/16 08:00:36;;;;;;;83.93;15.52;;;;;;;3.35;94.08;103619.91;5015000;28;20040;-83
2021/12/16 08:03:04;;;;;;;86.45;16.98;;;;;;;3.35;94.28;103617.31;5047200;28;20043;-83
2021/12/16 08:05:33;;;;;;;96.22;19.02;;;;;;;3.43;94.54;103618.72;5049157;28;20025;-83
2021/12/16 08:07:59;;;;;;;56.78;16.67;;;;;;;3.48;94.60;103624.19;5039435;28;20039;-81
2021/12/16 08:10:25;;;;;;;93.90;17.42;;;;;;;3.51;94.20;103632.13;5034613;28;20028;-83
2021/12/16 08:12:52;;;;;;;82.95;16.13;;;;;;;3.50;94.55;103640.72;5040629;28;20035;-83
2021/12/16 08:19:00;;;;;;;107.50;20.50;;;;;;;3.61;94.31;103633.63;5035053;28;20096;-83
2021/12/16 08:21:29;;;;;;;83.57;19.73;;;;;;;3.67;94.54;103644.34;5017399;28;20040;-82
2021/12/16 08:23:57;;;;;;;62.35;16.73;;;;;;;3.68;94.51;103642.66;5020976;28;20497;-83
2021/12/16 08:26:23;;;;;;;66.05;17.92;;;;;;;3.73;94.29;103649.91;5044907;28;20028;-83
2021/12/16 08:28:48;;;;;;;63.38;16.50;;;;;;;3.77;94.62;103653.59;5043158;28;20392;-83
2021/12/16 08:31:17;;;;;;;68.45;16.98;;;;;;;3.85;94.63;103646.28;5015889;28;20476;-83
2021/12/16 08:33:42;;;;;;;34.13;16.05;;;;;;;3.93;95.03;103647.66;5052862;28;20032;-81
2021/12/16 08:36:09;;;;;;;74.43;18.45;;;;;;;3.95;94.35;103665.13;5029678;28;20400;-83
2021/12/16 08:38:55;;;;;;;33.83;14.98;;;;;;;4.03;94.80;103672.47;5020391;28;20033;-83
2021/12/16 08:41:32;;;;;;;50.70;18.08;;;;;;;4.07;94.75;103657.16;5051222;28;20025;-81
2021/12/16 08:43:58;;;;;;;43.95;16.80;;;;;;;4.16;94.43;103670.69;5036748;28;20036;-83
2021/12/16 08:46:44;;;;;;;44.33;18.08;;;;;;;4.28;94.60;103680.00;5053111;28;20041;-83
2021/12/16 08:49:10;;;;;;;45.15;18.80;;;;;;;4.35;94.40;103676.97;5044225;28;20045;-83
2021/12/16 08:51:40;;;;;;;44.15;19.25;;;;;;;4.44;94.38;103681.81;5036518;28;20508;-83
2021/12/16 08:54:06;;;;;;;49.10;19.45;;;;;;;4.55;94.48;103685.06;5036482;28;20032;-83
2021/12/16 08:56:32;;;;;;;50.40;24.48;;;;;;;4.68;94.53;103682.38;5040160;28;20020;-81
2021/12/16 08:58:59;;;;;;;50.53;23.52;;;;;;;4.83;94.51;103683.25;5003668;28;20115;-83
2021/12/16 09:01:32;;;;;;;81.80;35.58;;;;;;;5.00;94.74;103692.03;5019894;28;20060;-83
2021/12/16 09:03:58;;;;;;;50.08;28.02;;;;;;;5.14;94.44;103687.63;5036392;28;20025;-83
2021/12/16 09:06:25;;;;;;;51.60;23.10;;;;;;;5.29;94.14;103694.50;5050875;28;20103;-82
2021/12/16 09:09:13;;;;;;;43.33;23.77;;;;;;;5.46;93.62;103693.72;5055639;28;20056;-83
2021/12/16 09:11:54;;;;;;;46.60;20.92;;;;;;;5.48;92.79;103691.19;5039410;28;20025;-83
2021/12/16 09:14:19;;;;;;;65.72;22.42;;;;;;;5.56;91.88;103695.13;5021680;28;20040;-84
2021/12/16 09:16:45;;;;;;;62.42;23.98;;;;;;;5.79;92.84;103698.97;5047141;28;20527;-84
2021/12/16 09:19:11;;;;;;;39.88;21.50;;;;;;;6.05;93.07;103696.91;5019897;28;20091;-83
2021/12/16 09:21:37;;;;;;;46.50;22.85;;;;;;;6.27;92.60;103703.25;5035809;28;20115;-84
2021/12/16 09:24:03;;;;;;;39.03;22.75;;;;;;;6.53;92.14;103708.06;5005555;28;20116;-84
2021/12/16 09:26:29;;;;;;;50.15;23.50;;;;;;;6.73;90.38;103701.25;5047942;28;20087;-84
2021/12/16 09:28:56;;;;;;;42.80;22.08;;;;;;;7.11;90.50;103697.03;5030084;28;20029;-84
2021/12/16 09:31:25;;;;;;;38.28;20.95;;;;;;;7.20;88.96;103708.75;5045948;28;20060;-85
2021/12/16 09:33:53;;;;;;;42.63;21.95;;;;;;;7.41;89.70;103701.03;5044027;28;20029;-84
2021/12/16 09:36:22;;;;;;;53.33;23.17;;;;;;;7.75;89.96;103702.63;5029302;28;20037;-84
2021/12/16 09:38:49;;;;;;;36.40;21.25;;;;;;;7.88;87.35;103715.38;5050632;28;20547;-84
2021/12/16 09:41:15;;;;;;;35.40;22.05;;;;;;;8.04;87.75;103708.25;5029123;28;20029;-84
2021/12/16 09:43:44;;;;;;;58.00;22.77;;;;;;;8.37;87.15;103707.97;5041884;28;20380;-84
2021/12/16 09:46:13;;;;;;;52.25;24.58;;;;;;;8.73;86.98;103713.00;5033872;28;20400;-83
2021/12/16 09:48:40;;;;;;;36.50;24.15;;;;;;;8.91;85.58;103710.28;5033528;28;20090;-83
2021/12/16 09:51:09;;;;;;;38.03;24.05;;;;;;;9.47;86.12;103697.66;5038413;28;20033;-83
2021/12/16 09:53:37;;;;;;;47.90;27.05;;;;;;;10.16;84.17;103691.47;5040106;28;20059;-83
2021/12/16 09:56:08;;;;;;;36.55;25.15;;;;;;;10.46;82.36;103701.25;5044741;28;20112;-83
2021/12/16 09:58:38;;;;;;;37.65;26.63;;;;;;;10.52;82.79;103693.63;5007181;28;20468;-84
2021/12/16 10:01:05;;;;;;;31.25;24.98;;;;;;;10.50;82.71;103700.53;5033092;28;20432;-83
2021/12/16 10:03:31;;;;;;;36.05;27.80;;;;;;;10.64;82.72;103696.66;5008894;28;20033;-84
2021/12/16 10:05:57;;;;;;;37.47;29.38;;;;;;;10.70;82.42;103707.38;5037372;28;20028;-83
2021/12/16 10:08:23;;;;;;;40.80;30.88;;;;;;;10.74;81.61;103701.38;5016676;28;20120;-84
2021/12/16 10:10:48;;;;;;;53.80;36.78;;;;;;;10.96;82.85;103702.09;5034880;28;20021;-76
2021/12/16 10:13:21;;;;;;;47.70;36.67;;;;;;;11.11;80.89;103695.56;5021062;28;20037;-76
2021/12/16 10:18:19;;;;;;;44.42;37.17;;;;;;;12.08;79.80;103696.72;5032859;28;20041;-76
2021/12/16 10:20:55;;;;;;;53.15;38.60;;;;;;;12.91;77.77;103705.84;5050424;28;20020;-77
2021/12/16 10:23:26;;;;;;;45.38;36.53;;;;;;;14.08;75.86;103698.75;5045804;28;20037;-76
2021/12/16 10:26:09;;;;;;;49.05;40.10;;;;;;;16.10;77.40;103700.09;5048028;28;20036;-76
2021/12/16 10:28:41;;;;;;;45.10;37.10;;;;;;;17.94;69.26;103703.16;5031383;28;20040;-76
2021/12/16 10:31:14;;;;;;;40.65;35.20;;;;;;;19.60;64.05;103690.69;5039892;28;20404;-77
2021/12/16 10:33:52;;;;;;;37.13;31.05;;;;;;;21.38;62.75;103692.84;5042234;28;20021;-77
2021/12/16 10:36:25;;;;;;;44.33;33.58;;;;;;;22.77;54.33;103705.06;5042049;28;20032;-77
2021/12/16 10:38:54;;;;;;;35.72;30.52;;;;;;;23.67;48.70;103703.31;5037581;28;20028;-77
2021/12/16 10:41:32;;;;;;;35.80;30.52;;;;;;;24.61;53.75;103708.28;5037877;28;20380;-77
2021/12/16 10:44:17;;;;;;;31.45;26.83;;;;;;;25.54;55.29;103709.31;5058898;28;20487;-77
2021/12/16 10:46:59;;;;;;;27.95;24.58;;;;;;;26.34;44.93;103706.81;5063446;28;20028;-77
2021/12/16 10:49:34;;;;;;;30.17;22.65;;;;;;;27.30;41.79;103707.03;5040446;28;20094;-77
2021/12/16 10:52:10;;;;;;;23.75;21.23;;;;;;;27.77;44.89;103714.25;5065560;28;20028;-78
2021/12/16 10:54:38;;;;;;;22.33;19.27;;;;;;;28.38;37.45;103717.22;5049015;28;20036;-78
2021/12/16 10:57:09;;;;;;;25.55;19.58;;;;;;;28.10;36.64;103716.53;5045940;28;20068;-78
2021/12/16 10:59:44;;;;;;;25.33;19.77;;;;;;;28.35;40.94;103719.06;5038809;28;20035;-78
2021/12/16 11:02:22;;;;;;;27.27;20.30;;;;;;;27.95;42.15;103722.53;5050575;28;20467;-78
2021/12/16 11:04:50;;;;;;;24.52;18.92;;;;;;;27.82;37.14;103723.00;5053687;28;20440;-78
2021/12/16 11:07:44;;;;;;;19.02;15.80;;;;;;;28.17;40.02;103719.84;5036628;28;20481;-77
2021/12/16 11:10:27;;;;;;;20.27;16.10;;;;;;;28.70;37.03;103732.03;5038551;28;20029;-77
2021/12/16 11:12:59;;;;;;;21.25;16.10;;;;;;;28.65;38.39;103737.63;5046917;28;20043;-77
2021/12/16 11:15:29;;;;;;;22.55;16.50;;;;;;;27.22;34.62;103732.47;5047647;28;20071;-77
2021/12/16 11:17:55;;;;;;;16.88;14.95;;;;;;;25.84;36.14;103728.09;5043545;28;20029;-76
2021/12/16 11:20:36;;;;;;;17.42;13.23;;;;;;;25.40;39.97;103733.88;5054608;28;20144;-77
2021/12/16 11:23:08;;;;;;;16.73;14.15;;;;;;;24.33;39.26;103733.06;5066871;28;20028;-77
2021/12/16 11:25:59;;;;;;;22.63;14.52;;;;;;;23.64;46.32;103730.16;5044328;28;20041;-77
2021/12/16 11:28:31;;;;;;;26.27;14.18;;;;;;;21.85;43.89;103731.41;5032475;28;20051;-77
2021/12/16 11:30:59;;;;;;;16.45;13.77;;;;;;;21.05;45.74;103722.50;5053319;28;20032;-77
2021/12/16 11:33:38;;;;;;;17.92;13.73;;;;;;;20.58;47.71;103729.13;5044411;28;20434;-76
2021/12/16 11:36:09;;;;;;;15.88;12.65;;;;;;;19.73;47.87;103727.84;5041114;28;20029;-77
2021/12/16 11:38:44;;;;;;;21.83;13.45;;;;;;;19.10;50.26;103717.41;5035149;28;20025;-76
2021/12/16 11:41:10;;;;;;;19.83;14.75;;;;;;;19.07;50.35;103711.22;5043239;28;20055;-76
2021/12/16 11:43:53;;;;;;;20.95;13.55;;;;;;;20.94;50.28;103717.28;5041742;28;20060;-76
2021/12/16 11:46:24;;;;;;;16.15;12.93;;;;;;;20.94;47.23;103719.06;5059370;28;20035;-77
2021/12/16 11:48:54;;;;;;;25.15;14.15;;;;;;;20.55;47.56;103716.72;5038639;28;20036;-77
2021/12/16 11:51:22;;;;;;;19.10;11.50;;;;;;;20.60;46.57;103714.91;5039606;28;20059;-77
2021/12/16 11:53:55;;;;;;;25.05;12.80;;;;;;;22.77;45.02;103710.41;5038390;28;20055;-77
2021/12/16 11:56:46;;;;;;;21.40;11.75;;;;;;;24.15;45.07;103711.16;5048420;28;20535;-77
2021/12/16 11:59:19;;;;;;;16.85;12.32;;;;;;;25.71;39.30;103700.75;5029752;28;20021;-77
2021/12/16 12:01:44;;;;;;;14.10;12.60;;;;;;;26.53;36.99;103700.81;5037964;28;20025;-77
2021/12/16 12:04:11;;;;;;;14.82;11.68;;;;;;;27.65;35.90;103698.53;5038700;28;20055;-77
2021/12/16 12:06:37;;;;;;;25.20;11.30;;;;;;;28.45;34.91;103700.69;5031711;28;20032;-77
2021/12/16 12:09:05;;;;;;;23.98;12.38;;;;;;;29.73;33.08;103696.75;5041963;28;20029;-76
2021/12/16 12:11:34;;;;;;;13.35;10.20;;;;;;;30.29;32.01;103700.31;5039800;28;20123;-77
2021/12/16 12:14:05;;;;;;;17.90;11.30;;;;;;;30.44;29.21;103703.22;5041778;28;20040;-77
2021/12/16 12:16:35;;;;;;;19.73;11.95;;;;;;;30.86;31.65;103696.47;5035521;28;20182;-77
2021/12/16 12:19:30;;;;;;;13.95;11.05;;;;;;;32.12;36.47;103697.63;5048362;28;20025;-78
2021/12/16 12:22:00;;;;;;;14.45;11.45;;;;;;;30.27;29.16;103695.91;5017420;28;20044;-77
2021/12/16 12:24:33;;;;;;;16.23;9.68;;;;;;;27.97;31.42;103694.56;5047162;28;20020;-78
2021/12/16 12:27:12;;;;;;;19.77;10.80;;;;;;;25.71;38.96;103692.69;5042532;28;20552;-78
2021/12/16 12:29:43;;;;;;;14.25;10.82;;;;;;;24.82;39.59;103688.06;5038072;28;20025;-77
2021/12/16 12:32:14;;;;;;;13.75;9.13;;;;;;;25.88;36.68;103674.22;5041149;28;20060;-77
2021/12/16 12:34:43;;;;;;;18.17;9.77;;;;;;;27.44;35.43;103676.03;5043417;28;20025;-77
2021/12/16 12:37:11;;;;;;;16.70;10.07;;;;;;;28.48;32.22;103688.91;5042492;28;20456;-77
2021/12/16 12:39:45;;;;;;;10.40;9.40;;;;;;;29.49;33.21;103688.84;5051518;28;20040;-77
2021/12/16 12:42:12;;;;;;;16.95;10.07;;;;;;;30.14;29.58;103684.84;5067518;28;20500;-78
2021/12/16 12:44:40;;;;;;;13.10;10.43;;;;;;;30.53;29.09;103691.91;5055808;28;20119;-77
2021/12/16 12:47:11;;;;;;;17.77;10.95;;;;;;;31.05;28.65;103694.56;5027201;28;20473;-78
2021/12/16 12:49:38;;;;;;;17.58;9.07;;;;;;;30.98;28.54;103689.53;5042737;28;20052;-78
2021/12/16 12:52:20;;;;;;;10.85;9.02;;;;;;;31.47;30.10;103694.09;5051661;28;20695;-77
2021/12/16 12:55:02;;;;;;;15.80;11.05;;;;;;;31.73;30.73;103698.06;5070952;28;20547;-77
2021/12/16 12:57:35;;;;;;;14.65;10.88;;;;;;;31.47;29.09;103694.97;5040079;28;20052;-77
2021/12/16 13:00:07;;;;;;;15.43;10.85;;;;;;;30.80;28.04;103694.09;5034475;28;20358;-77
2021/12/16 13:02:36;;;;;;;13.38;9.93;;;;;;;28.68;29.74;103691.63;5033298;28;20025;-77
2021/12/16 13:05:16;;;;;;;12.68;9.65;;;;;;;26.32;32.61;103684.50;5030698;28;20060;-78
2021/12/16 13:08:03;;;;;;;16.88;9.80;;;;;;;24.36;37.76;103679.41;5026733;28;20029;-77
2021/12/16 13:10:42;;;;;;;12.88;8.32;;;;;;;22.26;40.40;103675.59;5046580;28;20020;-77
2021/12/16 13:16:50;;;;;;;13.45;8.38;;;;;;;19.43;45.15;103672.13;5058764;28;20048;-77
2021/12/16 13:27:24;;;;;;;16.42;9.77;;;;;;;16.01;53.46;103683.22;5053132;28;20497;-76
2021/12/16 13:30:54;;;;;;;16.58;12.07;;;;;;;15.41;55.25;103678.06;5050458;28;20033;-77
2021/12/16 13:33:12;;;;;;;19.00;10.50;;;;;;;14.96;56.62;103684.47;5050037;28;20033;-76
2021/12/16 13:35:47;;;;;;;14.88;10.90;;;;;;;14.31;58.79;103680.72;5043841;28;20469;-76
2021/12/16 13:38:13;;;;;;;16.58;11.27;;;;;;;14.07;59.29;103682.03;5068844;28;20020;-76
2021/12/16 13:40:41;;;;;;;22.85;13.00;;;;;;;13.72;60.56;103681.34;5050003;28;20033;-76
2021/12/16 13:43:17;;;;;;;17.88;11.75;;;;;;;13.59;61.14;103680.19;5033387;28;20136;-76
2021/12/16 13:46:35;;;;;;;26.15;12.48;;;;;;;13.55;60.58;103684.53;5049292;28;20098;-76
2021/12/16 14:03:26;;;;;;;18.42;15.20;;;;;;;11.98;66.93;103692.03;5058352;28;20064;-76
2021/12/16 14:06:16;;;;;;;19.52;15.43;;;;;;;11.85;67.41;103700.38;5037895;28;20021;-75
2021/12/16 14:08:44;;;;;;;25.55;16.38;;;;;;;11.70;68.18;103688.59;5052540;28;20111;-75
2021/12/16 14:12:19;;;;;;;20.95;15.50;;;;;;;11.54;69.31;103694.25;5050807;28;20036;-75
2021/12/16 14:17:41;;;;;;;21.80;16.80;;;;;;;11.41;68.88;103701.75;5058533;28;20515;-75
2021/12/16 14:23:35;;;;;;;23.33;17.25;;;;;;;11.28;70.43;103702.22;5050177;28;20051;-75
2021/12/16 14:34:54;;;;;;;28.25;16.70;;;;;;;11.18;71.44;103711.53;5059291;28;20037;-75
2021/12/16 14:42:43;;;;;;;26.17;18.70;;;;;;;11.19;71.56;103720.28;5070945;28;20041;-76
2021/12/16 14:48:10;;;;;;;;;;;;;;;11.26;69.57;103719.66;5057459;28;20120;-76
2021/12/16 14:51:03;;;;;;;29.90;20.50;;;;;;;11.06;72.29;103722.53;5045048;28;19916;-76
2021/12/16 14:53:28;;;;;;;26.98;18.98;;;;;;;11.00;72.48;103721.44;5037191;28;20120;-76
2021/12/16 14:56:08;;;;;;;27.83;19.10;;;;;;;10.96;72.99;103728.34;5046256;28;20111;-76
2021/12/16 14:58:35;;;;;;;27.25;19.58;;;;;;;10.87;74.05;103722.78;5041664;28;20039;-76
2021/12/16 15:01:30;;;;;;;25.65;18.55;;;;;;;10.87;72.90;103722.78;5005056;28;20033;-76
2021/12/16 15:03:57;;;;;;;29.65;19.58;;;;;;;10.75;73.62;103716.28;5039065;28;20097;-76
2021/12/16 15:06:30;;;;;;;23.25;17.27;;;;;;;10.71;73.47;103717.00;5016840;28;20028;-76
2021/12/16 15:09:18;;;;;;;24.52;18.65;;;;;;;10.63;74.44;103713.25;5031787;28;20037;-76
2021/12/16 15:44:54;;;;;;;24.27;18.95;;;;;;;10.00;79.41;103732.84;5054358;28;20438;-76
2021/12/16 15:47:20;;;;;;;28.38;20.92;;;;;;;9.92;78.99;103742.13;5040667;28;20032;-76
2021/12/16 15:49:46;;;;;;;35.97;24.30;;;;;;;9.81;78.54;103736.50;5036441;28;20109;-76
2021/12/16 15:52:15;;;;;;;32.35;24.98;;;;;;;9.73;78.89;103745.78;5049604;28;20111;-76
2021/12/16 15:54:49;;;;;;;28.23;23.70;;;;;;;9.71;79.29;103736.97;5041065;28;20468;-76
2021/12/16 15:57:16;;;;;;;31.98;23.38;;;;;;;9.59;78.33;103742.63;5045366;28;20033;-76
2021/12/16 15:59:52;;;;;;;32.45;26.13;;;;;;;9.62;79.99;103753.22;4999094;28;20041;-76
2021/12/16 16:02:21;;;;;;;31.15;24.95;;;;;;;9.64;81.38;103758.50;5055004;28;20024;-76
2021/12/16 16:04:48;;;;;;;29.85;23.58;;;;;;;9.52;79.68;103762.47;5016703;28;20075;-76
2021/12/16 16:07:15;;;;;;;29.90;24.27;;;;;;;9.49;79.48;103766.66;5051560;28;20041;-76
2021/12/16 16:09:50;;;;;;;32.10;25.85;;;;;;;9.41;79.69;103773.31;5019346;28;20029;-76
2021/12/16 16:12:18;;;;;;;33.78;24.83;;;;;;;9.41;80.01;103773.31;5035747;28;20063;-76
2021/12/16 16:14:49;;;;;;;27.85;23.58;;;;;;;9.38;80.10;103774.09;5037264;28;20009;-76
2021/12/16 16:17:18;;;;;;;30.60;25.00;;;;;;;9.34;79.65;103769.56;5036781;28;20097;-76
2021/12/16 16:19:46;;;;;;;28.80;23.48;;;;;;;9.28;79.55;103772.84;5021954;28;20048;-76
2021/12/16 16:22:12;;;;;;;29.70;23.75;;;;;;;9.29;79.78;103778.94;5037685;28;20481;-76
2021/12/16 16:24:41;;;;;;;35.50;25.48;;;;;;;9.21;79.59;103769.88;5019758;28;20136;-76
2021/12/16 16:27:30;;;;;;;29.20;23.73;;;;;;;9.18;79.79;103773.28;5048860;28;20028;-76
2021/12/16 16:29:59;;;;;;;28.92;24.02;;;;;;;9.09;79.99;103772.91;5039008;28;20033;-76
2021/12/16 16:32:48;;;;;;;30.88;25.75;;;;;;;9.02;80.48;103774.34;5043503;28;20465;-76